Data for 06/08/2009

Time Sea-Level Adjusted Pressure Absolute Pressure Temperature Relative Humidity Dew Point   
(mb) (inHg) (mb) (inHg) (C) (F) (%) (C) (F)
00:05 1017 30.03 846 24.98 3.5 38.3 84 1.1 33.9
00:10 1017 30.03 846 24.98 3.5 38.2 84 1.1 33.9
00:15 1017 30.03 846 24.98 3.4 38.1 84 1 33.8
00:20 1017 30.03 846 24.98 3.3 38 85 1 33.7
00:25 1017 30.03 846 24.98 3.2 37.7 85 0.9 33.7
00:30 1017 30.03 846 24.98 3.1 37.5 86 0.9 33.7
00:35 1017 30.03 846 24.98 3 37.4 86 0.9 33.6
00:40 1017 30.03 846 24.98 2.9 37.2 86 0.8 33.5
00:45 1017 30.03 846 24.98 2.8 37 87 0.9 33.6
00:50 1017 30.03 846 24.98 2.7 36.8 88 0.9 33.5
00:55 1017 30.03 846 24.98 2.6 36.7 89 0.9 33.7
01:00 1017 30.03 846 24.98 2.6 36.6 89 0.9 33.6
01:05 1017 30.03 846 24.98 2.5 36.6 89 0.8 33.5
01:10 1017 30.03 846 24.98 2.5 36.4 89 0.9 33.5
01:15 1017 30.03 846 24.98 2.5 36.4 89 0.8 33.4
01:20 1017 30.03 846 24.98 2.5 36.5 89 0.9 33.6
01:25 1016 30 846 24.98 2.4 36.4 89 0.9 33.6
01:30 1016 30 846 24.98 2.5 36.4 89 0.8 33.4
01:35 1016 30 846 24.98 2.5 36.5 88 0.7 33.3
01:40 1016 30 846 24.98 2.5 36.4 88 0.7 33.2
01:45 1016 30 845 24.95 2.4 36.4 89 0.8 33.5
01:50 1016 30 845 24.95 2.3 36.1 90 0.8 33.4
01:55 1016 30 846 24.98 2.3 36.1 90 0.8 33.4
02:00 1016 30 845 24.95 2.2 36 90 0.8 33.4
02:05 1016 30 845 24.95 2.2 36 90 0.7 33.3
02:10 1016 30 845 24.95 2.2 36 90 0.7 33.2
02:15 1016 30 845 24.95 2.3 36.1 89 0.7 33.2
02:20 1016 30 845 24.95 2.3 36.1 89 0.7 33.2
02:25 1016 30 845 24.95 2.2 36 89 0.6 33.1
02:30 1016 30 845 24.95 2.2 36 89 0.6 33.1
02:35 1016 30 845 24.95 2.2 36 89 0.6 33.1
02:40 1016 30 845 24.95 2.2 36 89 0.6 33.1
02:45 1016 30 845 24.95 2.2 36 89 0.6 33
02:50 1016 30 845 24.95 2.2 36 89 0.5 33
02:55 1016 30 845 24.95 2.2 36 89 0.5 33
03:00 1016 30 846 24.98 2.2 35.9 89 0.6 33
03:05 1016 30 846 24.98 2.1 35.8 89 0.5 32.9
03:10 1016 30 846 24.98 2.1 35.8 89 0.5 32.8
03:15 1016 30 846 24.98 2.1 35.8 88 0.4 32.6
03:20 1016 30 845 24.95 2.1 35.9 88 0.3 32.5
03:25 1016 30 845 24.95 2.2 36 87 0.3 32.6
03:30 1016 30 845 24.95 2.2 36 88 0.3 32.6
03:35 1016 30 845 24.95 2.2 35.9 87 0.3 32.5
03:40 1016 30 845 24.95 2.2 35.9 87 0.3 32.5
03:45 1016 30 845 24.95 2.2 35.9 87 0.2 32.4
03:50 1016 30 845 24.95 2.2 36 87 0.3 32.6
03:55 1016 30 845 24.95 2.2 36 87 0.3 32.6
04:00 1016 30 845 24.95 2.3 36.1 87 0.3 32.5
04:05 1016 30 845 24.95 2.3 36.1 86 0.2 32.4
04:10 1016 30 845 24.95 2.3 36.1 87 0.3 32.5
04:15 1016 30 845 24.95 2.2 36 87 0.3 32.5
04:20 1016 30 845 24.95 2.2 35.9 87 0.2 32.4
04:25 1016 30 845 24.95 2.2 35.9 87 0.2 32.4
04:30 1016 30 845 24.95 2.2 35.9 87 0.3 32.5
04:35 1016 30 845 24.95 2.3 36.1 86 0.2 32.4
04:40 1016 30 845 24.95 2.3 36.2 86 0.3 32.5
04:45 1016 30 845 24.95 2.3 36.1 86 0.2 32.4
04:50 1016 30 845 24.95 2.2 36 86 0.1 32.3
04:55 1016 30 845 24.95 2.2 36 86 0.1 32.2
05:00 1016 30 845 24.95 2.2 36 86 0.2 32.3
05:05 1016 30 845 24.95 2.2 36 86 0.2 32.3
05:10 1016 30 845 24.95 2.3 36.2 86 0.2 32.3
05:15 1016 30 845 24.95 2.4 36.3 85 0.1 32.2
05:20 1016 30 845 24.95 2.4 36.4 85 0.2 32.3
05:25 1016 30 845 24.95 2.5 36.5 85 0.2 32.3
05:30 1016 30 845 24.95 2.5 36.5 84 0.1 32.2
05:35 1016 30 845 24.95 2.6 36.7 84 0.1 32.2
05:40 1016 30 845 24.95 2.6 36.8 84 0.2 32.3
05:45 1016 30 845 24.95 2.6 36.7 84 0.2 32.3
05:50 1016 30 845 24.95 2.6 36.7 84 0.2 32.3
05:55 1016 30 845 24.95 2.6 36.6 84 0.1 32.1
06:00 1016 30 845 24.95 2.7 36.8 83 0 32.1
06:05 1016 30 845 24.95 2.7 36.9 83 0 32.1
06:10 1016 30 845 24.95 2.7 36.9 82 0 32
06:15 1016 30 845 24.95 2.7 36.9 82 0 32.1
06:20 1016 30 845 24.95 2.7 36.9 82 -0 32
06:25 1016 30 845 24.95 2.8 37 82 0.1 32.2
06:30 1016 30 845 24.95 2.8 37.1 82 0.1 32.2
06:35 1016 30 845 24.95 2.8 37 83 0.1 32.2
06:40 1016 30 845 24.95 2.8 37.1 83 0.2 32.4
06:45 1016 30 845 24.95 2.9 37.2 83 0.4 32.7
06:50 1016 30 845 24.95 2.8 37.1 85 0.5 33
06:55 1016 30 845 24.95 2.7 36.8 86 0.5 32.9
07:00 1016 30 845 24.95 2.7 36.9 83 0.1 32.2
07:05 1016 30 845 24.95 2.8 37.1 82 0.1 32.1
07:10 1016 30 845 24.95 2.9 37.2 82 0 32.1
07:15 1016 30 845 24.95 3 37.4 80 -0.1 31.9
07:20 1016 30 845 24.95 3 37.5 80 0 32
07:25 1016 30 845 24.95 3.2 37.7 79 -0.1 31.9
07:30 1016 30 845 24.95 3.3 37.9 80 0.1 32.3
07:35 1016 30 845 24.95 3.4 38.2 79 0.2 32.3
07:40 1015 29.97 845 24.95 3.5 38.3 80 0.3 32.6
07:45 1015 29.97 845 24.95 3.6 38.5 78 0.1 32.2
07:50 1015 29.97 845 24.95 3.8 38.8 77 0.1 32.2
07:55 1015 29.97 845 24.95 4 39.3 76 0.2 32.4
08:00 1015 29.97 844 24.92 4.2 39.5 76 0.4 32.6
08:05 1015 29.97 844 24.92 4.1 39.4 77 0.4 32.7
08:10 1015 29.97 844 24.92 4.1 39.3 76 0.3 32.6
08:15 1015 29.97 844 24.92 4.1 39.4 76 0.2 32.4
08:20 1015 29.97 844 24.92 4.1 39.4 77 0.4 32.8
08:25 1015 29.97 844 24.92 4.2 39.6 77 0.5 32.9
08:30 1015 29.97 844 24.92 4.4 39.9 75 0.4 32.7
08:35 1015 29.97 844 24.92 4.6 40.2 75 0.5 32.9
08:40 1015 29.97 844 24.92 4.6 40.3 76 0.7 33.3
08:45 1015 29.97 844 24.92 4.6 40.3 75 0.6 33.1
08:50 1015 29.97 844 24.92 4.7 40.5 76 0.8 33.4
08:55 1015 29.97 844 24.92 4.8 40.6 75 0.7 33.3
09:00 1015 29.97 844 24.92 4.8 40.6 75 0.7 33.3
09:05 1015 29.97 844 24.92 5 41 75 0.9 33.6
09:10 1015 29.97 844 24.92 5.1 41.1 74 0.8 33.5
09:15 1015 29.97 844 24.92 5.2 41.3 74 1 33.8
09:20 1015 29.97 844 24.92 5.1 41.2 74 0.9 33.6
09:25 1015 29.97 844 24.92 4.9 40.9 75 1 33.8
09:30 1015 29.97 844 24.92 5 41 74 0.8 33.5
09:35 1015 29.97 844 24.92 5.1 41.2 74 0.8 33.4
09:40 1015 29.97 844 24.92 5.3 41.5 73 0.8 33.4
09:45 1015 29.97 844 24.92 5.4 41.7 72 0.7 33.3
09:50 1015 29.97 844 24.92 5.7 42.3 70 0.7 33.3
09:55 1015 29.97 844 24.92 5.8 42.4 71 0.9 33.5
10:00 1015 29.97 844 24.92 5.9 42.6 70 0.9 33.5
10:05 1015 29.97 844 24.92 6 42.9 69 0.9 33.6
10:10 1014 29.94 844 24.92 6.2 43.2 68 0.8 33.4
10:15 1014 29.94 844 24.92 6.3 43.4 69 1 33.8
10:20 1014 29.94 844 24.92 6.7 44 68 1.3 34.3
10:25 1014 29.94 844 24.92 7 44.6 68 1.5 34.8
10:30 1014 29.94 844 24.92 7.1 44.7 67 1.4 34.5
10:35 1014 29.94 844 24.92 6.5 43.7 71 1.7 35.1
10:40 1014 29.94 843 24.89 6.4 43.6 70 1.4 34.6
10:45 1014 29.94 843 24.89 6.4 43.6 70 1.4 34.6
10:50 1014 29.94 843 24.89 6.6 43.9 71 1.7 35.1
10:55 1014 29.94 843 24.89 6.8 44.2 70 1.7 35
11:00 1014 29.94 843 24.89 7.5 45.4 68 2 35.5
11:05 1014 29.94 843 24.89 7.7 45.9 66 1.7 35.1
11:10 1014 29.94 843 24.89 7.5 45.4 67 1.8 35.2
11:15 1014 29.94 843 24.89 7.3 45.2 68 1.8 35.3
11:20 1014 29.94 843 24.89 7.2 45 68 1.8 35.2
11:25 1014 29.94 843 24.89 7.4 45.2 68 1.9 35.4
11:30 1014 29.94 843 24.89 7.3 45.1 69 2 35.5
11:35 1014 29.94 843 24.89 7.8 46 65 1.7 35.1
11:40 1014 29.94 843 24.89 8.5 47.3 66 2.5 36.5
11:45 1014 29.94 843 24.89 8.6 47.5 64 2.2 35.9
11:50 1014 29.94 843 24.89 8.8 47.8 61 1.8 35.2
11:55 1014 29.94 843 24.89 8.9 48 63 2.3 36.2
12:00 1014 29.94 843 24.89 9.2 48.6 62 2.3 36.1
12:05 1014 29.94 843 24.89 9.1 48.4 61 2.1 35.8
12:10 1014 29.94 843 24.89 9.7 49.5 60 2.3 36.2
12:15 1014 29.94 843 24.89 9.7 49.5 62 2.9 37.2
12:20 1014 29.94 843 24.89 9.8 49.6 59 2.1 35.9
12:25 1014 29.94 843 24.89 9.7 49.5 60 2.4 36.3
12:30 1014 29.94 843 24.89 9.8 49.7 60 2.5 36.6
12:35 1014 29.94 843 24.89 9.9 49.8 59 2.2 36
12:40 1014 29.94 843 24.89 10.2 50.4 59 2.5 36.6
12:45 1014 29.94 843 24.89 10.6 51.1 56 2.2 35.9
12:50 1014 29.94 843 24.89 10.9 51.6 55 2.3 36.1
12:55 1014 29.94 843 24.89 10.7 51.3 53 1.7 35
13:00 1014 29.94 843 24.89 11.9 53.3 52 2.3 36.2
13:05 1014 29.94 843 24.89 12 53.6 56 3.5 38.3
13:10 1013 29.91 843 24.89 12.3 54.1 54 3.3 37.9
13:15 1013 29.91 843 24.89 11.7 53 56 3.4 38.1
13:20 1013 29.91 843 24.89 11.4 52.5 56 2.9 37.3
13:25 1013 29.91 843 24.89 11.7 53.1 53 2.5 36.5
13:30 1013 29.91 843 24.89 12.6 54.7 50 2.6 36.8
13:35 1013 29.91 843 24.89 12 53.5 52 2.4 36.3
13:40 1013 29.91 843 24.89 12.8 55.1 48 2.2 36
13:45 1013 29.91 843 24.89 13.8 56.9 46 2.6 36.7
13:50 1013 29.91 843 24.89 13.9 56.9 45 2 35.7
13:55 1013 29.91 843 24.89 13.9 57 45 2.2 35.9
14:00 1013 29.91 843 24.89 13.7 56.6 44 1.7 35
14:05 1013 29.91 842 24.86 13.8 56.8 45 2.3 36.1
14:10 1013 29.91 842 24.86 12.6 54.6 48 1.9 35.5
14:15 1013 29.91 842 24.86 12 53.6 48 1.4 34.6
14:20 1013 29.91 842 24.86 12.3 54.2 45 0.9 33.6
14:25 1013 29.91 842 24.86 12.2 54 46 1 33.7
14:30 1013 29.91 842 24.86 12.6 54.8 49 2.2 35.9
14:35 1013 29.91 842 24.86 12.1 53.8 50 2.2 35.9
14:40 1013 29.91 842 24.86 12 53.5 51 2.2 35.9
14:45 1013 29.91 842 24.86 11.5 52.7 53 2.2 36
14:50 1013 29.91 842 24.86 11.5 52.7 53 2.3 36.2
14:55 1013 29.91 842 24.86 11.3 52.4 54 2.4 36.4
15:00 1014 29.94 843 24.89 11.3 52.3 56 2.8 37.1
15:05 1014 29.94 843 24.89 11 51.8 58 3.1 37.6
15:10 1014 29.94 843 24.89 10.4 50.6 61 3.1 37.7
15:15 1014 29.94 843 24.89 9.9 49.7 60 2.5 36.6
15:20 1014 29.94 843 24.89 9.7 49.4 68 4.2 39.5
15:25 1014 29.94 843 24.89 9.5 49.1 70 4.3 39.8
15:30 1014 29.94 844 24.92 9.3 48.7 69 3.8 38.8
15:35 1014 29.94 844 24.92 8.7 47.7 68 3.1 37.7
15:40 1015 29.97 844 24.92 8.2 46.7 75 3.9 39.1
15:45 1015 29.97 844 24.92 8.4 47.2 67 2.6 36.7
15:50 1015 29.97 844 24.92 8.5 47.2 68 3 37.3
15:55 1015 29.97 844 24.92 8.6 47.5 69 3.2 37.8
16:00 1015 29.97 844 24.92 8.5 47.2 68 2.9 37.3
16:05 1015 29.97 844 24.92 7.7 45.9 78 4.1 39.5
16:10 1015 29.97 844 24.92 7.2 44.9 80 4 39.2
16:15 1015 29.97 844 24.92 6.9 44.4 82 4.1 39.3
16:20 1015 29.97 844 24.92 6.8 44.3 82 3.9 39.1
16:25 1015 29.97 844 24.92 6.8 44.3 83 4.1 39.4
16:30 1015 29.97 844 24.92 6.8 44.2 84 4.2 39.6
16:35 1014 29.94 844 24.92 6.5 43.7 84 3.9 39.1
16:40 1014 29.94 844 24.92 6.3 43.3 81 3.4 38.1
16:45 1015 29.97 844 24.92 6.2 43.2 82 3.4 38.2
16:50 1015 29.97 844 24.92 6.3 43.3 81 3.2 37.8
16:55 1015 29.97 844 24.92 6.2 43.2 84 3.7 38.6
17:00 1015 29.97 844 24.92 6.1 42.9 83 3.3 38
17:05 1015 29.97 844 24.92 6.1 43 82 3.2 37.8
17:10 1015 29.97 844 24.92 6.2 43.2 81 3.2 37.8
17:15 1015 29.97 844 24.92 6.3 43.4 80 3.2 37.7
17:20 1015 29.97 844 24.92 6.4 43.5 78 2.8 37.1
17:25 1015 29.97 844 24.92 6.6 43.9 78 3 37.5
17:30 1015 29.97 844 24.92 7 44.6 77 3.2 37.7
17:35 1015 29.97 844 24.92 7.1 44.7 73 2.6 36.7
17:40 1015 29.97 844 24.92 7.4 45.3 75 3.2 37.8
17:45 1015 29.97 844 24.92 7.7 45.8 75 3.4 38.2
17:50 1015 29.97 844 24.92 8 46.4 73 3.5 38.3
17:55 1015 29.97 844 24.92 8.1 46.6 67 2.4 36.3
18:00 1015 29.97 844 24.92 8 46.5 73 3.6 38.4
18:05 1015 29.97 844 24.92 8.1 46.5 74 3.7 38.7
18:10 1015 29.97 844 24.92 8.2 46.8 75 4.1 39.4
18:15 1015 29.97 844 24.92 8.5 47.4 69 3.3 37.9
18:20 1015 29.97 844 24.92 8.5 47.2 71 3.5 38.2
18:25 1015 29.97 844 24.92 8.5 47.2 70 3.3 37.9
18:30 1015 29.97 844 24.92 8.5 47.4 73 4 39.1
18:35 1015 29.97 844 24.92 8.4 47.2 71 3.5 38.3
18:40 1015 29.97 844 24.92 8.3 47 71 3.4 38.1
18:45 1015 29.97 844 24.92 8.3 47 69 3.1 37.5
18:50 1015 29.97 844 24.92 8.2 46.7 69 2.8 37
18:55 1015 29.97 844 24.92 8.1 46.6 71 3.1 37.6
19:00 1015 29.97 844 24.92 8.5 47.4 67 2.8 37.1
19:05 1015 29.97 844 24.92 8.9 47.9 64 2.5 36.6
19:10 1015 29.97 844 24.92 8.6 47.5 66 2.7 36.9
19:15 1014 29.94 844 24.92 8.7 47.6 67 3 37.4
19:20 1014 29.94 844 24.92 8.5 47.3 68 3 37.5
19:25 1014 29.94 844 24.92 8.2 46.8 69 2.9 37.2
19:30 1014 29.94 844 24.92 8.2 46.8 69 2.9 37.3
19:35 1014 29.94 844 24.92 8 46.5 70 2.9 37.1
19:40 1015 29.97 844 24.92 8.1 46.6 70 2.9 37.3
19:45 1015 29.97 844 24.92 8.1 46.5 72 3.4 38.1
19:50 1015 29.97 844 24.92 8 46.4 72 3.3 38
19:55 1015 29.97 844 24.92 8 46.3 73 3.5 38.3
20:00 1015 29.97 844 24.92 7.9 46.2 73 3.3 38
20:05 1015 29.97 844 24.92 7.9 46.2 74 3.5 38.3
20:10 1015 29.97 844 24.92 7.9 46.2 75 3.7 38.6
20:15 1014 29.94 844 24.92 7.9 46.2 76 4 39.2
20:20 1014 29.94 844 24.92 7.9 46.2 75 3.7 38.6
20:25 1014 29.94 844 24.92 7.9 46.2 74 3.6 38.5
20:30 1014 29.94 844 24.92 7.9 46.2 75 3.8 38.8
20:35 1015 29.97 844 24.92 7.9 46.2 74 3.6 38.4
20:40 1015 29.97 844 24.92 7.9 46.3 74 3.6 38.6
20:45 1015 29.97 844 24.92 7.9 46.3 76 3.9 39
20:50 1015 29.97 844 24.92 7.8 46.1 78 4.2 39.6
20:55 1014 29.94 844 24.92 7.6 45.6 78 4 39.3
21:00 1014 29.94 844 24.92 7.4 45.3 79 4 39.1
21:05 1014 29.94 844 24.92 7.3 45.1 79 4 39.1
21:10 1014 29.94 844 24.92 7.3 45.1 80 4 39.2
21:15 1014 29.94 844 24.92 7.2 45 80 3.9 39.1
21:20 1014 29.94 844 24.92 7.2 44.9 80 4 39.1
21:25 1014 29.94 844 24.92 7.1 44.9 81 4 39.3
21:30 1014 29.94 844 24.92 7.1 44.8 80 3.8 38.8
21:35 1014 29.94 843 24.89 7 44.6 80 3.8 38.9
21:40 1014 29.94 843 24.89 6.8 44.3 81 3.8 38.9
21:45 1014 29.94 843 24.89 6.7 44 82 3.8 38.9
21:50 1014 29.94 844 24.92 6.5 43.7 83 3.9 39
21:55 1014 29.94 844 24.92 6.4 43.5 83 3.8 38.8
22:00 1015 29.97 844 24.92 6.3 43.4 84 3.8 38.8
22:05 1015 29.97 844 24.92 6.2 43.1 84 3.7 38.6
22:10 1015 29.97 844 24.92 6.1 43 84 3.7 38.6
22:15 1015 29.97 844 24.92 6 42.8 84 3.5 38.3
22:20 1015 29.97 844 24.92 5.9 42.6 84 3.4 38
22:25 1015 29.97 844 24.92 5.9 42.5 84 3.3 37.9
22:30 1015 29.97 844 24.92 5.8 42.5 84 3.3 37.9
22:35 1015 29.97 844 24.92 5.8 42.4 83 3.2 37.7
22:40 1015 29.97 844 24.92 5.7 42.3 83 3.1 37.6
22:45 1015 29.97 844 24.92 5.7 42.2 84 3.1 37.6
22:50 1015 29.97 844 24.92 5.7 42.2 84 3.2 37.7
22:55 1015 29.97 844 24.92 5.6 42.1 84 3.1 37.6
23:00 1015 29.97 844 24.92 5.6 42.1 85 3.2 37.8
23:05 1015 29.97 844 24.92 5.6 42.1 84 3.2 37.8
23:10 1015 29.97 844 24.92 5.6 42.2 84 3.2 37.7
23:15 1015 29.97 844 24.92 5.7 42.2 84 3.2 37.8
23:20 1015 29.97 844 24.92 5.6 42.1 84 3.1 37.6
23:25 1014 29.94 844 24.92 5.6 42.1 84 3.2 37.8
23:30 1014 29.94 844 24.92 5.6 42.1 84 3.1 37.7
23:35 1014 29.94 844 24.92 5.6 42 85 3.2 37.8
23:40 1014 29.94 844 24.92 5.5 41.9 85 3.1 37.6
23:45 1014 29.94 843 24.89 5.5 41.9 85 3.2 37.8
23:50 1014 29.94 843 24.89 5.4 41.7 86 3.2 37.7
23:55 1014 29.94 844 24.92 5.3 41.6 86 3.2 37.7
24:00 1014 29.94 844 24.92 5.3 41.5 86 3.1 37.6